sensor_id;sensor_type;location;lat;lon;timestamp;P1;durP1;ratioP1;P2;durP2;ratioP2
9880;SDS011;4979;51.014;6.678;2023-05-15T00:01:42;17.08;;;12.10;;
9880;SDS011;4979;51.014;6.678;2023-05-15T00:04:08;20.92;;;11.68;;
9880;SDS011;4979;51.014;6.678;2023-05-15T00:06:33;14.15;;;11.68;;
9880;SDS011;4979;51.014;6.678;2023-05-15T00:08:59;15.65;;;11.07;;
9880;SDS011;4979;51.014;6.678;2023-05-15T00:11:25;13.80;;;11.20;;
9880;SDS011;4979;51.014;6.678;2023-05-15T00:13:52;12.65;;;10.63;;
9880;SDS011;4979;51.014;6.678;2023-05-15T00:16:17;16.38;;;11.55;;
9880;SDS011;4979;51.014;6.678;2023-05-15T00:18:43;19.95;;;11.68;;
9880;SDS011;4979;51.014;6.678;2023-05-15T00:21:09;17.05;;;12.25;;
9880;SDS011;4979;51.014;6.678;2023-05-15T00:23:34;18.60;;;12.68;;
9880;SDS011;4979;51.014;6.678;2023-05-15T00:26:00;19.13;;;12.63;;
9880;SDS011;4979;51.014;6.678;2023-05-15T00:28:25;19.85;;;12.23;;
9880;SDS011;4979;51.014;6.678;2023-05-15T00:30:51;15.35;;;12.68;;
9880;SDS011;4979;51.014;6.678;2023-05-15T00:33:17;17.10;;;12.80;;
9880;SDS011;4979;51.014;6.678;2023-05-15T00:35:42;19.02;;;12.88;;
9880;SDS011;4979;51.014;6.678;2023-05-15T00:38:08;20.48;;;14.13;;
9880;SDS011;4979;51.014;6.678;2023-05-15T00:40:34;21.48;;;14.20;;
9880;SDS011;4979;51.014;6.678;2023-05-15T00:43:01;20.92;;;14.70;;
9880;SDS011;4979;51.014;6.678;2023-05-15T00:45:28;17.35;;;13.45;;
9880;SDS011;4979;51.014;6.678;2023-05-15T00:47:54;17.52;;;12.88;;
9880;SDS011;4979;51.014;6.678;2023-05-15T00:50:21;20.70;;;15.30;;
9880;SDS011;4979;51.014;6.678;2023-05-15T00:52:48;20.67;;;14.20;;
9880;SDS011;4979;51.014;6.678;2023-05-15T00:55:14;20.10;;;14.18;;
9880;SDS011;4979;51.014;6.678;2023-05-15T00:57:41;19.15;;;14.90;;
9880;SDS011;4979;51.014;6.678;2023-05-15T01:00:07;20.23;;;14.80;;
9880;SDS011;4979;51.014;6.678;2023-05-15T01:02:34;21.25;;;14.65;;
9880;SDS011;4979;51.014;6.678;2023-05-15T01:05:03;23.88;;;14.93;;
9880;SDS011;4979;51.014;6.678;2023-05-15T01:07:29;22.38;;;14.98;;
9880;SDS011;4979;51.014;6.678;2023-05-15T01:09:58;26.60;;;16.38;;
9880;SDS011;4979;51.014;6.678;2023-05-15T01:12:26;25.58;;;16.45;;
9880;SDS011;4979;51.014;6.678;2023-05-15T01:14:55;26.15;;;16.40;;
9880;SDS011;4979;51.014;6.678;2023-05-15T01:17:21;26.92;;;16.13;;
9880;SDS011;4979;51.014;6.678;2023-05-15T01:19:47;25.52;;;15.63;;
9880;SDS011;4979;51.014;6.678;2023-05-15T01:27:44;23.15;;;15.70;;
9880;SDS011;4979;51.014;6.678;2023-05-15T01:30:29;22.75;;;16.02;;
9880;SDS011;4979;51.014;6.678;2023-05-15T01:33:04;26.23;;;15.80;;
9880;SDS011;4979;51.014;6.678;2023-05-15T01:35:44;26.17;;;16.13;;
9880;SDS011;4979;51.014;6.678;2023-05-15T01:38:18;24.42;;;16.30;;
9880;SDS011;4979;51.014;6.678;2023-05-15T01:41:04;24.77;;;16.60;;
9880;SDS011;4979;51.014;6.678;2023-05-15T01:43:34;23.13;;;16.95;;
9880;SDS011;4979;51.014;6.678;2023-05-15T01:46:05;27.10;;;17.63;;
9880;SDS011;4979;51.014;6.678;2023-05-15T01:48:32;23.92;;;16.67;;
9880;SDS011;4979;51.014;6.678;2023-05-15T01:51:00;23.20;;;16.50;;
9880;SDS011;4979;51.014;6.678;2023-05-15T01:53:31;33.10;;;16.42;;
9880;SDS011;4979;51.014;6.678;2023-05-15T01:55:58;24.80;;;17.55;;
9880;SDS011;4979;51.014;6.678;2023-05-15T01:58:25;26.23;;;17.95;;
9880;SDS011;4979;51.014;6.678;2023-05-15T02:00:52;25.25;;;18.25;;
9880;SDS011;4979;51.014;6.678;2023-05-15T02:03:17;22.42;;;17.95;;
9880;SDS011;4979;51.014;6.678;2023-05-15T02:05:44;24.88;;;17.27;;
9880;SDS011;4979;51.014;6.678;2023-05-15T02:08:11;27.48;;;18.05;;
9880;SDS011;4979;51.014;6.678;2023-05-15T02:10:37;28.60;;;18.10;;
9880;SDS011;4979;51.014;6.678;2023-05-15T02:13:04;29.10;;;19.45;;
9880;SDS011;4979;51.014;6.678;2023-05-15T02:15:32;25.98;;;18.00;;
9880;SDS011;4979;51.014;6.678;2023-05-15T02:17:58;26.38;;;20.30;;
9880;SDS011;4979;51.014;6.678;2023-05-15T02:20:23;29.08;;;20.15;;
9880;SDS011;4979;51.014;6.678;2023-05-15T02:22:49;30.70;;;21.13;;
9880;SDS011;4979;51.014;6.678;2023-05-15T02:25:15;32.65;;;22.67;;
9880;SDS011;4979;51.014;6.678;2023-05-15T02:27:52;34.42;;;23.15;;
9880;SDS011;4979;51.014;6.678;2023-05-15T02:30:27;31.65;;;22.58;;
9880;SDS011;4979;51.014;6.678;2023-05-15T02:35:58;33.70;;;23.15;;
9880;SDS011;4979;51.014;6.678;2023-05-15T02:38:29;34.08;;;22.38;;
9880;SDS011;4979;51.014;6.678;2023-05-15T02:40:57;35.58;;;24.95;;
9880;SDS011;4979;51.014;6.678;2023-05-15T02:43:25;29.92;;;22.20;;
9880;SDS011;4979;51.014;6.678;2023-05-15T02:45:51;37.05;;;24.17;;
9880;SDS011;4979;51.014;6.678;2023-05-15T02:48:17;38.65;;;24.80;;
9880;SDS011;4979;51.014;6.678;2023-05-15T02:50:43;35.90;;;24.45;;
9880;SDS011;4979;51.014;6.678;2023-05-15T02:53:09;36.55;;;23.05;;
9880;SDS011;4979;51.014;6.678;2023-05-15T02:55:38;37.17;;;24.40;;
9880;SDS011;4979;51.014;6.678;2023-05-15T02:58:03;39.05;;;24.40;;
9880;SDS011;4979;51.014;6.678;2023-05-15T03:00:30;39.35;;;25.10;;
9880;SDS011;4979;51.014;6.678;2023-05-15T03:02:55;41.20;;;26.52;;
9880;SDS011;4979;51.014;6.678;2023-05-15T03:05:21;36.85;;;26.17;;
9880;SDS011;4979;51.014;6.678;2023-05-15T03:07:46;40.50;;;27.23;;
9880;SDS011;4979;51.014;6.678;2023-05-15T03:10:12;40.42;;;25.75;;
9880;SDS011;4979;51.014;6.678;2023-05-15T03:12:38;47.72;;;28.40;;
9880;SDS011;4979;51.014;6.678;2023-05-15T03:15:06;38.65;;;27.23;;
9880;SDS011;4979;51.014;6.678;2023-05-15T03:17:32;39.05;;;27.13;;
9880;SDS011;4979;51.014;6.678;2023-05-15T03:19:58;39.03;;;26.33;;
9880;SDS011;4979;51.014;6.678;2023-05-15T03:22:23;39.55;;;26.25;;
9880;SDS011;4979;51.014;6.678;2023-05-15T03:24:50;41.92;;;27.17;;
9880;SDS011;4979;51.014;6.678;2023-05-15T03:27:16;41.10;;;28.25;;
9880;SDS011;4979;51.014;6.678;2023-05-15T03:29:41;41.53;;;25.08;;
9880;SDS011;4979;51.014;6.678;2023-05-15T03:32:07;40.30;;;27.13;;
9880;SDS011;4979;51.014;6.678;2023-05-15T03:34:33;48.42;;;29.15;;
9880;SDS011;4979;51.014;6.678;2023-05-15T03:36:58;45.65;;;28.60;;
9880;SDS011;4979;51.014;6.678;2023-05-15T03:39:24;40.97;;;27.85;;
9880;SDS011;4979;51.014;6.678;2023-05-15T03:41:49;47.20;;;28.83;;
9880;SDS011;4979;51.014;6.678;2023-05-15T03:44:15;45.33;;;30.48;;
9880;SDS011;4979;51.014;6.678;2023-05-15T03:46:40;43.00;;;29.00;;
9880;SDS011;4979;51.014;6.678;2023-05-15T03:49:06;46.53;;;27.85;;
9880;SDS011;4979;51.014;6.678;2023-05-15T03:51:32;42.90;;;28.95;;
9880;SDS011;4979;51.014;6.678;2023-05-15T03:53:57;48.92;;;29.63;;
9880;SDS011;4979;51.014;6.678;2023-05-15T03:56:23;42.03;;;28.70;;
9880;SDS011;4979;51.014;6.678;2023-05-15T03:58:49;44.22;;;28.00;;
9880;SDS011;4979;51.014;6.678;2023-05-15T04:01:14;43.65;;;28.73;;
9880;SDS011;4979;51.014;6.678;2023-05-15T04:03:40;53.03;;;30.88;;
9880;SDS011;4979;51.014;6.678;2023-05-15T04:06:05;44.65;;;28.42;;
9880;SDS011;4979;51.014;6.678;2023-05-15T04:08:31;44.45;;;30.10;;
9880;SDS011;4979;51.014;6.678;2023-05-15T04:10:57;45.85;;;30.13;;
9880;SDS011;4979;51.014;6.678;2023-05-15T04:13:23;50.60;;;30.42;;
9880;SDS011;4979;51.014;6.678;2023-05-15T04:15:48;55.22;;;32.22;;
9880;SDS011;4979;51.014;6.678;2023-05-15T04:18:14;44.38;;;31.02;;
9880;SDS011;4979;51.014;6.678;2023-05-15T04:20:39;49.65;;;30.05;;
9880;SDS011;4979;51.014;6.678;2023-05-15T04:23:05;42.50;;;29.88;;
9880;SDS011;4979;51.014;6.678;2023-05-15T04:25:31;42.50;;;30.48;;
9880;SDS011;4979;51.014;6.678;2023-05-15T04:27:57;48.22;;;30.92;;
9880;SDS011;4979;51.014;6.678;2023-05-15T04:30:22;52.40;;;32.03;;
9880;SDS011;4979;51.014;6.678;2023-05-15T04:32:48;48.75;;;32.58;;
9880;SDS011;4979;51.014;6.678;2023-05-15T04:35:15;45.15;;;30.63;;
9880;SDS011;4979;51.014;6.678;2023-05-15T04:37:41;47.75;;;29.42;;
9880;SDS011;4979;51.014;6.678;2023-05-15T04:40:09;44.80;;;29.92;;
9880;SDS011;4979;51.014;6.678;2023-05-15T04:42:35;43.00;;;29.92;;
9880;SDS011;4979;51.014;6.678;2023-05-15T04:45:01;43.75;;;29.88;;
9880;SDS011;4979;51.014;6.678;2023-05-15T04:47:27;40.90;;;28.45;;
9880;SDS011;4979;51.014;6.678;2023-05-15T04:49:53;42.33;;;29.13;;
9880;SDS011;4979;51.014;6.678;2023-05-15T04:52:18;40.88;;;27.88;;
9880;SDS011;4979;51.014;6.678;2023-05-15T04:54:44;45.78;;;28.35;;
9880;SDS011;4979;51.014;6.678;2023-05-15T04:57:11;41.10;;;26.02;;
9880;SDS011;4979;51.014;6.678;2023-05-15T04:59:37;41.40;;;26.60;;
9880;SDS011;4979;51.014;6.678;2023-05-15T05:02:03;38.53;;;26.40;;
9880;SDS011;4979;51.014;6.678;2023-05-15T05:04:28;40.85;;;27.73;;
9880;SDS011;4979;51.014;6.678;2023-05-15T05:06:54;37.40;;;25.33;;
9880;SDS011;4979;51.014;6.678;2023-05-15T05:09:20;42.17;;;25.92;;
9880;SDS011;4979;51.014;6.678;2023-05-15T05:11:45;38.42;;;24.33;;
9880;SDS011;4979;51.014;6.678;2023-05-15T05:14:14;37.97;;;25.58;;
9880;SDS011;4979;51.014;6.678;2023-05-15T05:16:40;34.72;;;22.55;;
9880;SDS011;4979;51.014;6.678;2023-05-15T05:19:08;31.65;;;24.20;;
9880;SDS011;4979;51.014;6.678;2023-05-15T05:21:34;38.90;;;24.75;;
9880;SDS011;4979;51.014;6.678;2023-05-15T05:24:00;33.97;;;24.42;;
9880;SDS011;4979;51.014;6.678;2023-05-15T05:26:26;38.28;;;25.45;;
9880;SDS011;4979;51.014;6.678;2023-05-15T05:28:51;33.88;;;23.45;;
9880;SDS011;4979;51.014;6.678;2023-05-15T05:31:17;34.53;;;24.48;;
9880;SDS011;4979;51.014;6.678;2023-05-15T05:33:44;31.92;;;24.00;;
9880;SDS011;4979;51.014;6.678;2023-05-15T05:36:09;39.88;;;26.40;;
9880;SDS011;4979;51.014;6.678;2023-05-15T05:38:35;33.08;;;24.75;;
9880;SDS011;4979;51.014;6.678;2023-05-15T05:41:01;35.33;;;24.88;;
9880;SDS011;4979;51.014;6.678;2023-05-15T05:43:27;31.75;;;22.95;;
9880;SDS011;4979;51.014;6.678;2023-05-15T05:45:53;37.58;;;24.83;;
9880;SDS011;4979;51.014;6.678;2023-05-15T05:48:19;33.47;;;23.55;;
9880;SDS011;4979;51.014;6.678;2023-05-15T05:50:45;34.72;;;25.48;;
9880;SDS011;4979;51.014;6.678;2023-05-15T05:53:10;34.65;;;23.77;;
9880;SDS011;4979;51.014;6.678;2023-05-15T05:55:36;30.33;;;22.48;;
9880;SDS011;4979;51.014;6.678;2023-05-15T05:58:02;34.20;;;25.23;;
9880;SDS011;4979;51.014;6.678;2023-05-15T06:00:28;39.80;;;27.25;;
9880;SDS011;4979;51.014;6.678;2023-05-15T06:02:55;39.15;;;26.17;;
9880;SDS011;4979;51.014;6.678;2023-05-15T06:05:23;37.67;;;27.23;;
9880;SDS011;4979;51.014;6.678;2023-05-15T06:07:52;37.38;;;26.55;;
9880;SDS011;4979;51.014;6.678;2023-05-15T06:10:18;40.95;;;26.10;;
9880;SDS011;4979;51.014;6.678;2023-05-15T06:12:44;36.45;;;25.42;;
9880;SDS011;4979;51.014;6.678;2023-05-15T06:15:11;42.08;;;26.45;;
9880;SDS011;4979;51.014;6.678;2023-05-15T06:17:37;34.80;;;24.83;;
9880;SDS011;4979;51.014;6.678;2023-05-15T06:20:02;35.47;;;25.95;;
9880;SDS011;4979;51.014;6.678;2023-05-15T06:22:36;36.78;;;25.73;;
9880;SDS011;4979;51.014;6.678;2023-05-15T06:25:02;41.42;;;27.85;;
9880;SDS011;4979;51.014;6.678;2023-05-15T06:27:29;39.28;;;26.27;;
9880;SDS011;4979;51.014;6.678;2023-05-15T06:29:55;37.13;;;26.92;;
9880;SDS011;4979;51.014;6.678;2023-05-15T06:32:20;32.67;;;24.58;;
9880;SDS011;4979;51.014;6.678;2023-05-15T06:34:46;41.53;;;28.67;;
9880;SDS011;4979;51.014;6.678;2023-05-15T06:37:12;34.85;;;25.05;;
9880;SDS011;4979;51.014;6.678;2023-05-15T06:39:37;38.75;;;27.42;;
9880;SDS011;4979;51.014;6.678;2023-05-15T06:42:03;34.47;;;24.63;;
9880;SDS011;4979;51.014;6.678;2023-05-15T06:44:29;35.53;;;26.40;;
9880;SDS011;4979;51.014;6.678;2023-05-15T06:46:55;36.75;;;25.92;;
9880;SDS011;4979;51.014;6.678;2023-05-15T06:49:21;35.15;;;26.38;;
9880;SDS011;4979;51.014;6.678;2023-05-15T06:51:48;32.22;;;23.70;;
9880;SDS011;4979;51.014;6.678;2023-05-15T06:54:14;39.97;;;26.63;;
9880;SDS011;4979;51.014;6.678;2023-05-15T06:56:39;39.58;;;26.77;;
9880;SDS011;4979;51.014;6.678;2023-05-15T06:59:05;37.03;;;26.33;;
9880;SDS011;4979;51.014;6.678;2023-05-15T07:01:30;36.40;;;25.55;;
9880;SDS011;4979;51.014;6.678;2023-05-15T07:03:56;35.78;;;26.90;;
9880;SDS011;4979;51.014;6.678;2023-05-15T07:06:21;36.00;;;26.63;;
9880;SDS011;4979;51.014;6.678;2023-05-15T07:08:47;37.90;;;28.30;;
9880;SDS011;4979;51.014;6.678;2023-05-15T07:11:13;37.35;;;26.02;;
9880;SDS011;4979;51.014;6.678;2023-05-15T07:13:39;43.40;;;28.70;;
9880;SDS011;4979;51.014;6.678;2023-05-15T07:16:05;38.72;;;27.05;;
9880;SDS011;4979;51.014;6.678;2023-05-15T07:18:31;36.80;;;25.90;;
9880;SDS011;4979;51.014;6.678;2023-05-15T07:20:56;35.10;;;27.67;;
9880;SDS011;4979;51.014;6.678;2023-05-15T07:23:22;40.35;;;28.60;;
9880;SDS011;4979;51.014;6.678;2023-05-15T07:25:47;38.58;;;26.38;;
9880;SDS011;4979;51.014;6.678;2023-05-15T07:28:13;40.95;;;27.80;;
9880;SDS011;4979;51.014;6.678;2023-05-15T07:30:39;41.90;;;29.20;;
9880;SDS011;4979;51.014;6.678;2023-05-15T07:33:05;44.08;;;29.25;;
9880;SDS011;4979;51.014;6.678;2023-05-15T07:35:30;37.60;;;26.95;;
9880;SDS011;4979;51.014;6.678;2023-05-15T07:37:56;36.85;;;25.98;;
9880;SDS011;4979;51.014;6.678;2023-05-15T07:40:21;39.83;;;24.85;;
9880;SDS011;4979;51.014;6.678;2023-05-15T07:42:47;41.42;;;27.13;;
9880;SDS011;4979;51.014;6.678;2023-05-15T07:45:13;37.10;;;25.38;;
9880;SDS011;4979;51.014;6.678;2023-05-15T07:47:43;39.10;;;24.83;;
9880;SDS011;4979;51.014;6.678;2023-05-15T07:50:10;36.80;;;25.77;;
9880;SDS011;4979;51.014;6.678;2023-05-15T07:52:35;33.58;;;26.08;;
9880;SDS011;4979;51.014;6.678;2023-05-15T07:55:01;26.98;;;22.25;;
9880;SDS011;4979;51.014;6.678;2023-05-15T07:57:27;31.70;;;25.50;;
9880;SDS011;4979;51.014;6.678;2023-05-15T07:59:53;28.92;;;23.70;;
9880;SDS011;4979;51.014;6.678;2023-05-15T08:02:20;33.83;;;24.90;;
9880;SDS011;4979;51.014;6.678;2023-05-15T08:04:46;31.33;;;23.65;;
9880;SDS011;4979;51.014;6.678;2023-05-15T08:07:12;35.13;;;24.90;;
9880;SDS011;4979;51.014;6.678;2023-05-15T08:09:38;28.60;;;23.00;;
9880;SDS011;4979;51.014;6.678;2023-05-15T08:12:16;37.55;;;22.95;;
9880;SDS011;4979;51.014;6.678;2023-05-15T08:14:46;30.30;;;21.63;;
9880;SDS011;4979;51.014;6.678;2023-05-15T08:17:15;26.80;;;19.90;;
9880;SDS011;4979;51.014;6.678;2023-05-15T08:19:41;26.85;;;21.80;;
9880;SDS011;4979;51.014;6.678;2023-05-15T08:22:07;30.17;;;22.42;;
9880;SDS011;4979;51.014;6.678;2023-05-15T08:24:32;25.00;;;21.35;;
9880;SDS011;4979;51.014;6.678;2023-05-15T08:26:58;30.35;;;21.95;;
9880;SDS011;4979;51.014;6.678;2023-05-15T08:29:24;33.53;;;21.92;;
9880;SDS011;4979;51.014;6.678;2023-05-15T08:31:50;30.67;;;21.60;;
9880;SDS011;4979;51.014;6.678;2023-05-15T08:34:15;29.63;;;22.17;;
9880;SDS011;4979;51.014;6.678;2023-05-15T08:36:41;29.83;;;21.85;;
9880;SDS011;4979;51.014;6.678;2023-05-15T08:39:07;30.40;;;22.70;;
9880;SDS011;4979;51.014;6.678;2023-05-15T08:41:36;32.47;;;23.17;;
9880;SDS011;4979;51.014;6.678;2023-05-15T08:44:07;33.10;;;22.77;;
9880;SDS011;4979;51.014;6.678;2023-05-15T08:46:34;28.48;;;21.42;;
9880;SDS011;4979;51.014;6.678;2023-05-15T08:49:01;30.85;;;21.52;;
9880;SDS011;4979;51.014;6.678;2023-05-15T08:51:31;25.67;;;21.33;;
9880;SDS011;4979;51.014;6.678;2023-05-15T08:53:57;29.70;;;22.17;;
9880;SDS011;4979;51.014;6.678;2023-05-15T08:56:22;30.40;;;22.08;;
9880;SDS011;4979;51.014;6.678;2023-05-15T08:58:48;27.85;;;21.77;;
9880;SDS011;4979;51.014;6.678;2023-05-15T09:01:14;26.90;;;19.98;;
9880;SDS011;4979;51.014;6.678;2023-05-15T09:03:40;23.13;;;20.13;;
9880;SDS011;4979;51.014;6.678;2023-05-15T09:06:06;26.33;;;21.02;;
9880;SDS011;4979;51.014;6.678;2023-05-15T09:08:34;26.60;;;18.83;;
9880;SDS011;4979;51.014;6.678;2023-05-15T09:11:01;29.58;;;21.27;;
9880;SDS011;4979;51.014;6.678;2023-05-15T09:13:28;29.77;;;20.52;;
9880;SDS011;4979;51.014;6.678;2023-05-15T09:15:55;24.10;;;19.20;;
9880;SDS011;4979;51.014;6.678;2023-05-15T09:18:20;24.63;;;19.40;;
9880;SDS011;4979;51.014;6.678;2023-05-15T09:20:46;23.95;;;19.02;;
9880;SDS011;4979;51.014;6.678;2023-05-15T09:23:22;24.27;;;19.17;;
9880;SDS011;4979;51.014;6.678;2023-05-15T09:25:51;24.95;;;19.88;;
9880;SDS011;4979;51.014;6.678;2023-05-15T09:30:56;22.80;;;17.85;;
9880;SDS011;4979;51.014;6.678;2023-05-15T09:33:30;22.10;;;16.52;;
9880;SDS011;4979;51.014;6.678;2023-05-15T09:35:57;23.30;;;16.52;;
9880;SDS011;4979;51.014;6.678;2023-05-15T09:38:23;20.55;;;16.10;;
9880;SDS011;4979;51.014;6.678;2023-05-15T09:40:49;24.15;;;17.27;;
9880;SDS011;4979;51.014;6.678;2023-05-15T09:43:15;22.42;;;15.77;;
9880;SDS011;4979;51.014;6.678;2023-05-15T09:45:40;21.58;;;15.05;;
9880;SDS011;4979;51.014;6.678;2023-05-15T09:48:07;24.67;;;17.35;;
9880;SDS011;4979;51.014;6.678;2023-05-15T09:50:36;21.73;;;16.50;;
9880;SDS011;4979;51.014;6.678;2023-05-15T09:53:02;21.80;;;16.65;;
9880;SDS011;4979;51.014;6.678;2023-05-15T09:55:32;23.13;;;17.27;;
9880;SDS011;4979;51.014;6.678;2023-05-15T09:58:16;17.83;;;15.90;;
9880;SDS011;4979;51.014;6.678;2023-05-15T10:00:43;20.98;;;16.77;;
9880;SDS011;4979;51.014;6.678;2023-05-15T10:03:09;23.60;;;16.98;;
9880;SDS011;4979;51.014;6.678;2023-05-15T10:05:36;23.52;;;15.98;;
9880;SDS011;4979;51.014;6.678;2023-05-15T10:08:02;28.73;;;18.02;;
9880;SDS011;4979;51.014;6.678;2023-05-15T10:10:29;69.18;;;21.20;;
9880;SDS011;4979;51.014;6.678;2023-05-15T10:12:56;24.85;;;16.13;;
9880;SDS011;4979;51.014;6.678;2023-05-15T10:15:23;22.90;;;17.30;;
9880;SDS011;4979;51.014;6.678;2023-05-15T10:17:50;23.38;;;17.13;;
9880;SDS011;4979;51.014;6.678;2023-05-15T10:20:17;27.02;;;16.65;;
9880;SDS011;4979;51.014;6.678;2023-05-15T10:22:45;24.58;;;15.77;;
9880;SDS011;4979;51.014;6.678;2023-05-15T10:25:31;24.67;;;17.17;;
9880;SDS011;4979;51.014;6.678;2023-05-15T10:28:09;21.35;;;16.85;;
9880;SDS011;4979;51.014;6.678;2023-05-15T10:30:35;21.70;;;17.73;;
9880;SDS011;4979;51.014;6.678;2023-05-15T10:33:02;18.65;;;15.60;;
9880;SDS011;4979;51.014;6.678;2023-05-15T10:35:29;17.70;;;14.23;;
9880;SDS011;4979;51.014;6.678;2023-05-15T10:37:55;18.60;;;15.27;;
9880;SDS011;4979;51.014;6.678;2023-05-15T10:40:22;16.50;;;14.88;;
9880;SDS011;4979;51.014;6.678;2023-05-15T10:42:48;112.57;;;25.10;;
9880;SDS011;4979;51.014;6.678;2023-05-15T10:45:14;84.57;;;21.23;;
9880;SDS011;4979;51.014;6.678;2023-05-15T10:47:40;47.25;;;17.27;;
9880;SDS011;4979;51.014;6.678;2023-05-15T10:50:08;39.30;;;16.10;;
9880;SDS011;4979;51.014;6.678;2023-05-15T10:52:36;19.25;;;13.68;;
9880;SDS011;4979;51.014;6.678;2023-05-15T10:55:05;53.50;;;18.70;;
9880;SDS011;4979;51.014;6.678;2023-05-15T10:57:37;16.38;;;12.43;;
9880;SDS011;4979;51.014;6.678;2023-05-15T11:00:03;16.60;;;10.75;;
9880;SDS011;4979;51.014;6.678;2023-05-15T11:02:52;33.83;;;12.18;;
9880;SDS011;4979;51.014;6.678;2023-05-15T11:05:20;86.85;;;17.70;;
9880;SDS011;4979;51.014;6.678;2023-05-15T11:10:41;24.10;;;13.30;;
9880;SDS011;4979;51.014;6.678;2023-05-15T11:13:07;74.75;;;20.90;;
9880;SDS011;4979;51.014;6.678;2023-05-15T11:15:43;33.25;;;15.55;;
9880;SDS011;4979;51.014;6.678;2023-05-15T11:18:09;34.85;;;17.38;;
9880;SDS011;4979;51.014;6.678;2023-05-15T11:20:42;18.90;;;11.95;;
9880;SDS011;4979;51.014;6.678;2023-05-15T11:23:26;23.90;;;13.18;;
9880;SDS011;4979;51.014;6.678;2023-05-15T11:25:52;17.73;;;13.00;;
9880;SDS011;4979;51.014;6.678;2023-05-15T11:28:21;19.92;;;15.88;;
9880;SDS011;4979;51.014;6.678;2023-05-15T11:30:49;17.85;;;14.70;;
9880;SDS011;4979;51.014;6.678;2023-05-15T11:33:16;56.78;;;15.05;;
9880;SDS011;4979;51.014;6.678;2023-05-15T11:35:42;26.33;;;13.75;;
9880;SDS011;4979;51.014;6.678;2023-05-15T11:38:13;141.60;;;27.17;;
9880;SDS011;4979;51.014;6.678;2023-05-15T11:40:42;34.53;;;14.52;;
9880;SDS011;4979;51.014;6.678;2023-05-15T11:43:24;17.77;;;12.70;;
9880;SDS011;4979;51.014;6.678;2023-05-15T11:45:56;63.13;;;16.35;;
9880;SDS011;4979;51.014;6.678;2023-05-15T11:48:23;55.45;;;16.10;;
9880;SDS011;4979;51.014;6.678;2023-05-15T11:50:55;330.88;;;49.97;;
9880;SDS011;4979;51.014;6.678;2023-05-15T11:53:21;68.13;;;17.45;;
9880;SDS011;4979;51.014;6.678;2023-05-15T11:55:48;16.58;;;10.90;;
9880;SDS011;4979;51.014;6.678;2023-05-15T11:58:16;18.13;;;12.25;;
9880;SDS011;4979;51.014;6.678;2023-05-15T12:00:43;15.00;;;12.73;;
9880;SDS011;4979;51.014;6.678;2023-05-15T12:03:13;17.25;;;11.20;;
9880;SDS011;4979;51.014;6.678;2023-05-15T12:05:40;107.80;;;22.52;;
9880;SDS011;4979;51.014;6.678;2023-05-15T12:08:12;101.50;;;22.20;;
9880;SDS011;4979;51.014;6.678;2023-05-15T12:10:41;38.45;;;14.73;;
9880;SDS011;4979;51.014;6.678;2023-05-15T12:13:12;131.93;;;23.50;;
9880;SDS011;4979;51.014;6.678;2023-05-15T12:15:39;51.97;;;16.83;;
9880;SDS011;4979;51.014;6.678;2023-05-15T12:18:06;180.80;;;28.25;;
9880;SDS011;4979;51.014;6.678;2023-05-15T12:20:37;67.43;;;17.70;;
9880;SDS011;4979;51.014;6.678;2023-05-15T12:23:03;22.83;;;11.75;;
9880;SDS011;4979;51.014;6.678;2023-05-15T12:25:31;21.50;;;9.80;;
9880;SDS011;4979;51.014;6.678;2023-05-15T12:28:00;15.23;;;10.25;;
9880;SDS011;4979;51.014;6.678;2023-05-15T12:30:26;11.05;;;8.75;;
9880;SDS011;4979;51.014;6.678;2023-05-15T12:32:57;7.25;;;6.55;;
9880;SDS011;4979;51.014;6.678;2023-05-15T12:35:33;10.77;;;8.43;;
9880;SDS011;4979;51.014;6.678;2023-05-15T12:38:03;30.90;;;11.73;;
9880;SDS011;4979;51.014;6.678;2023-05-15T12:40:31;24.08;;;11.70;;
9880;SDS011;4979;51.014;6.678;2023-05-15T12:42:58;85.55;;;17.42;;
9880;SDS011;4979;51.014;6.678;2023-05-15T12:45:24;90.90;;;17.75;;
9880;SDS011;4979;51.014;6.678;2023-05-15T12:47:50;75.40;;;18.83;;
9880;SDS011;4979;51.014;6.678;2023-05-15T12:50:19;221.95;;;34.30;;
9880;SDS011;4979;51.014;6.678;2023-05-15T12:52:52;15.68;;;9.95;;
9880;SDS011;4979;51.014;6.678;2023-05-15T12:55:23;81.32;;;17.05;;
9880;SDS011;4979;51.014;6.678;2023-05-15T12:57:56;27.80;;;11.13;;
9880;SDS011;4979;51.014;6.678;2023-05-15T13:00:22;64.65;;;15.68;;
9880;SDS011;4979;51.014;6.678;2023-05-15T13:02:49;36.03;;;11.98;;
9880;SDS011;4979;51.014;6.678;2023-05-15T13:05:21;42.55;;;12.60;;
9880;SDS011;4979;51.014;6.678;2023-05-15T13:07:47;14.15;;;9.63;;
9880;SDS011;4979;51.014;6.678;2023-05-15T13:10:13;10.05;;;9.05;;
9880;SDS011;4979;51.014;6.678;2023-05-15T13:12:43;12.23;;;8.90;;
9880;SDS011;4979;51.014;6.678;2023-05-15T13:17:57;26.13;;;12.43;;
9880;SDS011;4979;51.014;6.678;2023-05-15T13:20:23;48.20;;;14.65;;
9880;SDS011;4979;51.014;6.678;2023-05-15T13:22:49;21.80;;;11.80;;
9880;SDS011;4979;51.014;6.678;2023-05-15T13:25:18;29.50;;;12.20;;
9880;SDS011;4979;51.014;6.678;2023-05-15T13:27:45;178.23;;;29.60;;
9880;SDS011;4979;51.014;6.678;2023-05-15T13:30:12;24.52;;;13.40;;
9880;SDS011;4979;51.014;6.678;2023-05-15T13:32:38;14.05;;;10.25;;
9880;SDS011;4979;51.014;6.678;2023-05-15T13:35:04;12.77;;;9.25;;
9880;SDS011;4979;51.014;6.678;2023-05-15T13:37:30;13.32;;;11.60;;
9880;SDS011;4979;51.014;6.678;2023-05-15T13:39:56;18.17;;;12.93;;
9880;SDS011;4979;51.014;6.678;2023-05-15T13:42:22;14.10;;;10.90;;
9880;SDS011;4979;51.014;6.678;2023-05-15T13:44:47;15.90;;;11.15;;
9880;SDS011;4979;51.014;6.678;2023-05-15T13:47:13;18.45;;;13.63;;
9880;SDS011;4979;51.014;6.678;2023-05-15T13:49:39;27.17;;;15.88;;
9880;SDS011;4979;51.014;6.678;2023-05-15T13:52:05;22.67;;;18.45;;
9880;SDS011;4979;51.014;6.678;2023-05-15T13:54:30;24.77;;;19.20;;
9880;SDS011;4979;51.014;6.678;2023-05-15T13:56:56;23.20;;;18.73;;
9880;SDS011;4979;51.014;6.678;2023-05-15T13:59:21;26.45;;;18.65;;
9880;SDS011;4979;51.014;6.678;2023-05-15T14:01:47;23.40;;;17.40;;
9880;SDS011;4979;51.014;6.678;2023-05-15T14:04:13;20.30;;;16.70;;
9880;SDS011;4979;51.014;6.678;2023-05-15T14:06:38;20.40;;;17.30;;
9880;SDS011;4979;51.014;6.678;2023-05-15T14:09:04;20.30;;;17.35;;
9880;SDS011;4979;51.014;6.678;2023-05-15T14:11:31;18.92;;;16.73;;
9880;SDS011;4979;51.014;6.678;2023-05-15T14:13:56;24.63;;;16.83;;
9880;SDS011;4979;51.014;6.678;2023-05-15T14:16:22;18.35;;;16.27;;
9880;SDS011;4979;51.014;6.678;2023-05-15T14:18:48;19.20;;;17.13;;
9880;SDS011;4979;51.014;6.678;2023-05-15T14:21:13;21.05;;;16.67;;
9880;SDS011;4979;51.014;6.678;2023-05-15T14:23:39;18.80;;;13.65;;
9880;SDS011;4979;51.014;6.678;2023-05-15T14:26:04;22.23;;;15.27;;
9880;SDS011;4979;51.014;6.678;2023-05-15T14:28:30;18.33;;;14.32;;
9880;SDS011;4979;51.014;6.678;2023-05-15T14:30:56;15.77;;;14.02;;
9880;SDS011;4979;51.014;6.678;2023-05-15T14:33:22;16.38;;;12.43;;
9880;SDS011;4979;51.014;6.678;2023-05-15T14:35:47;17.13;;;13.45;;
9880;SDS011;4979;51.014;6.678;2023-05-15T14:38:13;18.98;;;14.07;;
9880;SDS011;4979;51.014;6.678;2023-05-15T14:40:39;20.58;;;16.50;;
9880;SDS011;4979;51.014;6.678;2023-05-15T14:43:06;21.60;;;17.27;;
9880;SDS011;4979;51.014;6.678;2023-05-15T14:45:32;19.35;;;14.85;;
9880;SDS011;4979;51.014;6.678;2023-05-15T14:47:58;25.20;;;16.38;;
9880;SDS011;4979;51.014;6.678;2023-05-15T14:50:23;21.75;;;14.93;;
9880;SDS011;4979;51.014;6.678;2023-05-15T14:52:49;15.35;;;13.45;;
9880;SDS011;4979;51.014;6.678;2023-05-15T14:55:15;16.48;;;12.98;;
9880;SDS011;4979;51.014;6.678;2023-05-15T14:57:45;15.93;;;14.18;;
9880;SDS011;4979;51.014;6.678;2023-05-15T15:00:13;18.45;;;12.80;;
9880;SDS011;4979;51.014;6.678;2023-05-15T15:02:39;11.82;;;10.50;;
9880;SDS011;4979;51.014;6.678;2023-05-15T15:05:06;18.23;;;11.63;;